Time;durP1;ratioP1;P1;durP2;ratioP2;P2;SDS_P1;SDS_P2;PMS_P1;PMS_P2;Temp;Humidity;BMP_temperature;BMP_pressure;BME280_temperature;BME280_humidity;BME280_pressure;Samples;Min_cycle;Max_cycle;Signal;HPM_P1;HPM_P2
2022/01/05 00:04:04;;;;;;;6.82;4.30;;;;;;;2.63;81.81;98697.81;8442891;33;20460;-75
2022/01/05 00:09:07;;;;;;;9.13;4.22;;;;;;;2.27;82.60;98694.25;8448484;33;20463;-76
2022/01/05 00:14:15;;;;;;;8.25;4.43;;;;;;;2.32;82.11;98678.03;8448811;33;20530;-75
2022/01/05 00:19:18;;;;;;;15.75;4.35;;;;;;;2.19;82.58;98686.03;8448516;33;20199;-75
2022/01/05 00:24:21;;;;;;;9.05;4.63;;;;;;;2.49;81.80;98690.03;8450892;33;20527;-75
2022/01/05 00:29:26;;;;;;;13.38;6.13;;;;;;;2.10;83.00;98690.19;8451588;33;20551;-77
2022/01/05 00:34:29;;;;;;;7.25;5.15;;;;;;;2.17;82.31;98693.25;8449983;33;20196;-76
2022/01/05 00:39:32;;;;;;;13.82;6.35;;;;;;;2.54;82.33;98698.50;8444016;33;20754;-76
2022/01/05 00:44:37;;;;;;;7.47;4.18;;;;;;;2.38;82.28;98694.31;8444160;33;20315;-75
2022/01/05 00:49:40;;;;;;;11.30;5.35;;;;;;;2.51;82.29;98690.75;8402748;33;20193;-76
2022/01/05 00:54:45;;;;;;;7.25;4.85;;;;;;;2.36;81.84;98690.94;8379087;33;20421;-76
2022/01/05 00:59:50;;;;;;;9.05;4.50;;;;;;;2.33;81.78;98706.19;8376455;33;21499;-75
2022/01/05 01:04:53;;;;;;;7.75;3.83;;;;;;;2.20;81.35;98700.13;8379077;33;20178;-75
2022/01/05 01:09:56;;;;;;;8.88;3.95;;;;;;;2.08;81.41;98702.69;8375017;33;20135;-76
2022/01/05 01:15:00;;;;;;;7.85;3.95;;;;;;;2.28;80.89;98708.38;8375616;33;20196;-77
2022/01/05 01:20:05;;;;;;;4.90;3.08;;;;;;;2.06;80.93;98703.78;8376734;33;20536;-76
2022/01/05 01:25:10;;;;;;;4.80;3.55;;;;;;;2.24;80.42;98710.38;8374115;33;20908;-76
2022/01/05 01:30:15;;;;;;;6.50;3.80;;;;;;;2.38;80.81;98709.34;8374878;33;21242;-76
2022/01/05 01:35:18;;;;;;;8.57;3.92;;;;;;;2.12;81.07;98709.47;8376151;33;20259;-76
2022/01/05 01:40:22;;;;;;;12.57;3.63;;;;;;;2.08;80.65;98723.88;8375002;33;20229;-76
2022/01/05 01:45:27;;;;;;;9.35;3.70;;;;;;;2.20;80.29;98711.56;8374919;33;20142;-76
2022/01/05 01:50:30;;;;;;;7.05;3.58;;;;;;;2.24;79.88;98713.03;8374520;33;20537;-77
2022/01/05 01:55:34;;;;;;;5.85;3.00;;;;;;;2.11;80.35;98709.56;8376072;33;20448;-75
2022/01/05 02:00:39;;;;;;;7.85;2.97;;;;;;;2.02;80.27;98704.94;8375063;33;20452;-76
2022/01/05 02:05:42;;;;;;;9.43;3.33;;;;;;;1.88;80.33;98714.72;8374922;33;20190;-76
2022/01/05 02:10:45;;;;;;;7.47;2.80;;;;;;;1.75;80.33;98713.06;8374843;33;20778;-76
2022/01/05 02:15:50;;;;;;;5.43;3.10;;;;;;;1.89;79.81;98715.56;8384562;33;20428;-76
2022/01/05 02:21:00;;;;;;;8.55;2.80;;;;;;;1.63;80.23;98710.34;8390396;33;20201;-76
2022/01/05 02:26:05;;;;;;;4.88;2.85;;;;;;;1.81;79.88;98718.78;8374698;33;22575;-76
2022/01/05 02:31:08;;;;;;;7.65;3.78;;;;;;;1.61;79.73;98714.88;8337114;33;20152;-76
2022/01/05 02:36:17;;;;;;;5.25;2.67;;;;;;;1.49;80.41;98718.41;8347628;33;20711;-75
2022/01/05 02:41:21;;;;;;;6.43;2.40;;;;;;;1.48;79.85;98722.88;8364217;33;20477;-74
2022/01/05 02:46:24;;;;;;;5.70;2.30;;;;;;;1.52;79.67;98717.34;8375325;33;20459;-75
2022/01/05 02:51:30;;;;;;;7.85;2.90;;;;;;;1.57;79.78;98724.00;8378392;33;20498;-75
2022/01/05 02:56:33;;;;;;;5.78;2.10;;;;;;;1.22;80.77;98726.47;8378862;33;20349;-74
2022/01/05 03:01:36;;;;;;;6.95;2.53;;;;;;;1.23;80.87;98721.03;8380512;33;20260;-75
2022/01/05 03:06:41;;;;;;;7.35;1.70;;;;;;;0.90;81.61;98716.28;8379207;33;20256;-75
2022/01/05 03:11:44;;;;;;;3.58;1.92;;;;;;;0.94;82.25;98733.63;8379890;33;20507;-75
2022/01/05 03:16:48;;;;;;;5.13;1.90;;;;;;;0.94;82.15;98733.63;8382317;33;20438;-75
2022/01/05 03:21:52;;;;;;;4.03;1.95;;;;;;;0.86;81.61;98737.75;8386656;33;20173;-75
2022/01/05 03:26:55;;;;;;;9.25;2.25;;;;;;;0.89;81.64;98746.31;8390927;33;20517;-75
2022/01/05 03:31:58;;;;;;;7.72;2.47;;;;;;;0.83;82.54;98744.09;8376412;33;21016;-75
2022/01/05 03:37:03;;;;;;;5.45;2.97;;;;;;;0.82;81.71;98742.38;8374987;33;21139;-76
2022/01/05 03:42:07;;;;;;;2.55;2.13;;;;;;;0.61;82.98;98742.88;8374771;33;20531;-75
2022/01/05 03:47:10;;;;;;;6.70;2.95;;;;;;;0.57;82.61;98749.28;8373437;33;20150;-75
2022/01/05 03:52:14;;;;;;;6.10;2.90;;;;;;;0.67;82.54;98775.97;8373016;33;20150;-75
2022/01/05 03:57:17;;;;;;;6.60;3.00;;;;;;;0.56;82.81;98781.09;8372370;33;20797;-75
2022/01/05 04:02:21;;;;;;;2.65;2.22;;;;;;;0.68;82.42;98782.94;8376643;33;20631;-75
2022/01/05 04:07:25;;;;;;;6.05;2.50;;;;;;;0.45;82.98;98794.16;8379435;33;20461;-74
2022/01/05 04:12:29;;;;;;;10.75;3.00;;;;;;;0.74;82.31;98785.19;8378236;33;20454;-74
2022/01/05 04:17:32;;;;;;;5.85;3.22;;;;;;;0.38;81.92;98801.63;8377570;33;20313;-74
2022/01/05 04:22:36;;;;;;;4.38;1.77;;;;;;;0.34;82.76;98808.06;8379249;33;20412;-75
2022/01/05 04:27:40;;;;;;;3.28;1.73;;;;;;;0.48;81.89;98804.53;8378694;33;20166;-75
2022/01/05 04:32:43;;;;;;;4.90;2.58;;;;;;;0.58;81.68;98816.22;8379386;33;20145;-76
2022/01/05 04:38:07;;;;;;;2.90;2.13;;;;;;;0.23;80.89;98834.31;8378437;33;20231;-76
2022/01/05 04:43:10;;;;;;;6.30;1.98;;;;;;;0.33;80.59;98832.75;8378474;33;20884;-76
2022/01/05 04:48:13;;;;;;;4.82;2.00;;;;;;;0.27;80.70;98835.81;8378681;33;20197;-76
2022/01/05 04:53:17;;;;;;;9.93;3.28;;;;;;;0.43;81.13;98833.03;8377127;33;20182;-75
2022/01/05 04:58:20;;;;;;;10.90;3.05;;;;;;;0.37;79.98;98824.56;8373623;33;21081;-76
2022/01/05 05:03:23;;;;;;;6.85;2.38;;;;;;;0.48;79.49;98838.88;8369994;33;20444;-77
2022/01/05 05:08:28;;;;;;;7.00;2.60;;;;;;;0.29;80.10;98842.69;8367818;33;20478;-76
2022/01/05 05:13:31;;;;;;;10.75;2.25;;;;;;;0.28;80.38;98838.34;8370576;33;20150;-74
2022/01/05 05:18:34;;;;;;;4.60;2.38;;;;;;;0.06;81.32;98836.22;8376933;33;20316;-75
2022/01/05 05:23:38;;;;;;;8.17;2.27;;;;;;;0.13;81.33;98845.44;8373805;33;20551;-75
2022/01/05 05:28:41;;;;;;;6.23;3.40;;;;;;;0.19;81.56;98841.56;8372913;33;20510;-75
2022/01/05 05:33:45;;;;;;;7.17;2.53;;;;;;;-0.15;81.01;98848.09;8366226;33;20925;-76
2022/01/05 05:38:49;;;;;;;4.63;1.52;;;;;;;-0.10;81.63;98835.47;8366392;33;21174;-75
2022/01/05 05:43:52;;;;;;;3.80;1.83;;;;;;;-0.10;81.70;98846.03;8368922;33;20252;-75
2022/01/05 05:48:55;;;;;;;13.02;3.38;;;;;;;0.04;81.43;98850.47;8369774;33;20572;-76
2022/01/05 05:53:59;;;;;;;4.15;2.22;;;;;;;0.00;80.54;98855.09;8371091;33;20555;-75
2022/01/05 05:59:03;;;;;;;6.15;2.35;;;;;;;0.01;80.49;98825.09;8367250;33;20919;-76
2022/01/05 06:04:06;;;;;;;3.22;1.88;;;;;;;0.02;80.00;98847.06;8365184;33;20436;-76
2022/01/05 06:09:10;;;;;;;6.68;1.83;;;;;;;0.13;79.47;98852.50;8369473;33;20150;-76
2022/01/05 06:14:13;;;;;;;9.18;3.35;;;;;;;0.19;79.25;98851.28;8367616;33;20272;-74
2022/01/05 06:19:16;;;;;;;2.40;1.65;;;;;;;0.14;78.35;98860.34;8373580;33;20497;-76
2022/01/05 06:24:20;;;;;;;5.32;1.70;;;;;;;0.28;77.94;98856.84;8378812;33;20432;-74
2022/01/05 06:29:23;;;;;;;3.33;2.40;;;;;;;0.21;77.98;98844.97;8369844;33;20433;-75
2022/01/05 06:34:26;;;;;;;5.07;2.63;;;;;;;0.36;77.45;98856.38;8369849;33;20488;-77
2022/01/05 06:39:31;;;;;;;4.10;2.22;;;;;;;0.43;77.19;98854.19;8369501;33;20440;-77
2022/01/05 06:44:34;;;;;;;8.82;3.03;;;;;;;0.47;76.61;98876.81;8368929;33;20423;-76
2022/01/05 06:49:38;;;;;;;15.88;3.50;;;;;;;0.32;76.83;98860.13;8374700;33;20452;-75
2022/01/05 06:54:43;;;;;;;11.90;3.45;;;;;;;0.28;76.52;98840.16;8379478;33;20216;-76
2022/01/05 06:59:46;;;;;;;14.02;3.83;;;;;;;0.29;76.70;98869.09;8378078;33;20420;-76
2022/01/05 07:04:49;;;;;;;8.27;2.90;;;;;;;0.13;76.74;98860.44;8379077;33;20583;-76
2022/01/05 07:09:54;;;;;;;7.75;2.20;;;;;;;0.37;76.43;98863.34;8376861;33;20438;-76
2022/01/05 07:14:57;;;;;;;10.13;3.00;;;;;;;0.17;76.24;98881.28;8373853;33;20438;-74
2022/01/05 07:20:00;;;;;;;7.05;3.08;;;;;;;0.50;75.91;98869.53;8372596;33;20422;-75
2022/01/05 07:25:06;;;;;;;7.47;3.15;;;;;;;0.21;75.91;98886.38;8360249;33;20686;-74
2022/01/05 07:30:10;;;;;;;3.53;2.30;;;;;;;0.49;75.90;98874.91;8314372;34;20414;-74
2022/01/05 07:35:13;;;;;;;7.15;2.30;;;;;;;0.63;75.39;98880.16;8315765;34;20429;-75
2022/01/05 07:40:19;;;;;;;3.00;2.63;;;;;;;0.34;75.79;98882.88;8354296;33;20407;-75
2022/01/05 07:45:22;;;;;;;7.25;4.18;;;;;;;0.34;75.52;98884.66;8377593;33;20158;-74
2022/01/05 07:50:28;;;;;;;5.00;1.92;;;;;;;0.53;75.06;98898.41;8372823;33;20476;-74
2022/01/05 07:55:34;;;;;;;11.60;3.40;;;;;;;0.60;75.33;98899.72;8354006;33;21443;-74
2022/01/05 08:00:37;;;;;;;9.32;3.05;;;;;;;0.69;74.53;98908.03;8354765;33;20590;-74
2022/01/05 08:05:41;;;;;;;9.05;3.47;;;;;;;0.51;75.91;98915.31;8356245;33;20574;-76
2022/01/05 08:10:45;;;;;;;6.13;2.40;;;;;;;0.48;75.71;98929.56;8329776;33;20179;-75
2022/01/05 08:15:48;;;;;;;13.90;4.88;;;;;;;0.98;74.18;98912.25;8323488;34;20182;-75
2022/01/05 08:20:51;;;;;;;4.70;2.83;;;;;;;0.71;74.80;98887.59;8373904;33;20433;-75
2022/01/05 08:25:56;;;;;;;6.97;3.60;;;;;;;0.89;74.35;98901.44;8377615;33;20458;-76
2022/01/05 08:30:59;;;;;;;9.93;4.47;;;;;;;0.66;75.43;98900.25;8375685;33;20948;-74
2022/01/05 08:36:02;;;;;;;10.05;4.85;;;;;;;0.78;75.06;98904.78;8342837;33;20644;-76
2022/01/05 08:41:07;;;;;;;7.93;4.68;;;;;;;0.54;77.90;98893.97;8350938;33;20461;-74
2022/01/05 08:46:10;;;;;;;13.98;5.45;;;;;;;0.58;79.37;98901.63;8331593;33;20210;-76
2022/01/05 08:51:13;;;;;;;9.68;5.13;;;;;;;0.50;78.73;98877.47;8322305;34;20490;-74
2022/01/05 08:56:18;;;;;;;14.02;4.32;;;;;;;0.50;78.75;98895.97;8318130;34;20999;-76
2022/01/05 09:01:23;;;;;;;12.90;7.47;;;;;;;0.46;79.85;98891.81;8318423;34;20151;-76
2022/01/05 09:06:26;;;;;;;15.70;7.03;;;;;;;-0.04;83.23;98898.44;8321241;34;20892;-76
2022/01/05 09:11:31;;;;;;;12.68;5.88;;;;;;;-0.07;84.52;98878.34;8318179;34;20495;-76
2022/01/05 09:16:35;;;;;;;10.90;4.88;;;;;;;-0.35;86.99;98917.91;8315889;34;20585;-76
2022/01/05 09:21:38;;;;;;;13.38;6.43;;;;;;;-0.53;87.02;98906.66;8311196;34;20934;-74
2022/01/05 09:26:43;;;;;;;16.67;8.13;;;;;;;-0.54;89.09;98892.63;8311485;34;20488;-74
2022/01/05 09:31:46;;;;;;;13.77;8.15;;;;;;;-0.54;89.43;98895.25;8314233;34;20926;-74
2022/01/05 09:36:57;;;;;;;15.43;7.50;;;;;;;-0.83;90.38;98904.00;8323929;33;20476;-74
2022/01/05 09:42:05;;;;;;;18.20;10.73;;;;;;;-0.98;90.30;98884.66;8315276;33;20498;-74
2022/01/05 09:47:26;;;;;;;12.27;7.67;;;;;;;-0.83;90.13;98881.13;8313640;34;20253;-74
2022/01/05 09:52:31;;;;;;;14.67;8.27;;;;;;;-0.95;100.00;98863.41;8327716;33;20950;-74
2022/01/05 09:57:36;;;;;;;13.30;7.57;;;;;;;-0.70;94.32;98868.09;8367704;33;20440;-74
2022/01/05 10:02:39;;;;;;;20.07;9.77;;;;;;;-0.61;92.09;98864.91;8369489;33;20602;-73
2022/01/05 10:07:42;;;;;;;21.97;9.40;;;;;;;-0.57;92.21;98849.75;8375719;33;20508;-73
2022/01/05 10:12:47;;;;;;;24.37;12.07;;;;;;;-0.64;92.26;98882.69;8376062;33;20436;-73
2022/01/05 10:17:50;;;;;;;18.90;10.65;;;;;;;-0.52;91.78;98864.38;8325185;34;20163;-75
2022/01/05 10:22:54;;;;;;;22.73;10.03;;;;;;;-0.73;92.38;98863.84;8334940;33;20155;-73
2022/01/05 10:28:01;;;;;;;27.37;13.00;;;;;;;-0.74;92.66;98870.06;8393825;33;20931;-73
2022/01/05 10:33:09;;;;;;;26.90;13.53;;;;;;;-0.96;91.85;98893.31;8406221;33;20933;-73
2022/01/05 10:38:15;;;;;;;18.47;12.17;;;;;;;-1.00;92.90;98876.84;8399081;33;20150;-74
2022/01/05 10:43:20;;;;;;;15.77;10.20;;;;;;;-0.99;93.66;98890.84;8404101;33;20593;-73
2022/01/05 10:48:24;;;;;;;21.73;13.93;;;;;;;-1.01;92.96;98871.66;8409848;33;20239;-73
2022/01/05 10:53:27;;;;;;;28.03;12.80;;;;;;;-0.88;92.40;98891.09;8406092;33;21086;-73
2022/01/05 10:58:45;;;;;;;15.77;9.00;;;;;;;-0.86;93.09;98897.13;8393797;33;20490;-73
2022/01/05 11:03:48;;;;;;;27.87;14.73;;;;;;;-0.79;94.17;98884.47;8385824;33;20154;-73
2022/01/05 11:08:54;;;;;;;24.50;12.17;;;;;;;-0.39;93.01;98906.69;8398730;33;20190;-73
2022/01/05 11:13:59;;;;;;;17.53;10.20;;;;;;;-0.36;93.11;98895.94;8405101;33;21016;-74
2022/01/05 11:19:18;;;;;;;14.67;9.20;;;;;;;-0.46;93.87;98920.34;8428039;33;20421;-73
2022/01/05 11:24:23;;;;;;;12.23;7.17;;;;;;;-0.47;93.84;98921.28;8446310;33;20595;-72
2022/01/05 11:29:27;;;;;;;14.93;7.87;;;;;;;-0.25;92.97;98919.03;8414040;33;20252;-72
2022/01/05 11:34:31;;;;;;;11.53;6.77;;;;;;;-0.53;93.68;98944.41;8356872;33;22040;-71
2022/01/05 11:39:44;;;;;;;14.60;7.53;;;;;;;-0.39;93.41;98937.50;8369515;33;20186;-72
2022/01/05 11:44:51;;;;;;;7.53;4.73;;;;;;;-0.56;94.01;98947.25;8363717;33;20857;-72
2022/01/05 11:49:56;;;;;;;4.77;3.83;;;;;;;-0.36;94.33;98956.63;8382554;33;20448;-73
2022/01/05 11:55:06;;;;;;;10.50;4.13;;;;;;;-0.14;94.08;98968.56;8369370;33;20444;-72
2022/01/05 12:00:21;;;;;;;12.03;6.40;;;;;;;-0.02;93.98;98973.13;8398008;33;20217;-72
2022/01/05 12:05:25;;;;;;;6.00;3.90;;;;;;;0.23;93.12;98979.56;8407787;33;20150;-73
2022/01/05 12:10:54;;;;;;;2.58;2.35;;;;;;;-0.12;92.22;99008.91;8419336;33;20149;-73
2022/01/05 12:15:59;;;;;;;5.63;4.00;;;;;;;-0.01;92.98;99001.22;8383083;33;20205;-72
2022/01/05 12:21:02;;;;;;;4.07;2.83;;;;;;;0.04;92.64;98990.38;8406653;33;20743;-73
2022/01/05 12:26:16;;;;;;;6.03;4.03;;;;;;;0.21;93.69;99010.50;8411199;33;21003;-73
2022/01/05 12:32:00;;;;;;;7.27;4.47;;;;;;;0.50;93.52;98993.72;8413447;33;21370;-75
2022/01/05 12:37:03;;;;;;;5.25;2.75;;;;;;;0.32;93.49;99005.41;8375479;33;20228;-73
2022/01/05 12:42:24;;;;;;;9.38;2.35;;;;;;;0.58;93.51;99009.13;8396689;33;20551;-73
2022/01/05 12:47:37;;;;;;;8.32;3.47;;;;;;;0.68;93.76;99006.72;8395342;33;20158;-74
2022/01/05 12:52:40;;;;;;;6.40;4.00;;;;;;;0.80;93.45;99025.34;8387514;33;20217;-74
2022/01/05 12:57:43;;;;;;;4.03;2.90;;;;;;;0.93;92.89;99043.91;8373090;33;20523;-73
2022/01/05 13:02:48;;;;;;;2.55;2.33;;;;;;;1.11;92.70;99028.69;8379471;33;21196;-74
2022/01/05 13:07:51;;;;;;;4.05;2.72;;;;;;;1.35;91.89;99034.22;8417363;33;20156;-74
2022/01/05 13:12:56;;;;;;;4.85;1.77;;;;;;;1.26;91.41;99025.06;8408962;33;20747;-74
2022/01/05 13:18:00;;;;;;;3.13;2.55;;;;;;;1.05;91.84;99043.16;8430201;33;20691;-74
2022/01/05 13:23:04;;;;;;;2.80;2.45;;;;;;;1.44;90.39;99036.25;8394338;33;20441;-74
2022/01/05 13:28:08;;;;;;;3.30;2.65;;;;;;;1.39;90.31;99041.00;8415133;33;20193;-74
2022/01/05 13:33:15;;;;;;;3.63;2.15;;;;;;;1.49;90.78;99039.47;8415748;33;20401;-75
2022/01/05 13:38:18;;;;;;;4.38;3.08;;;;;;;1.57;90.32;99072.53;8389519;33;20150;-74
2022/01/05 13:43:25;;;;;;;4.57;2.80;;;;;;;1.50;90.73;99077.34;8373219;33;20447;-75
2022/01/05 13:48:31;;;;;;;4.18;2.10;;;;;;;1.58;90.08;99098.03;8364071;33;20186;-74
2022/01/05 13:53:35;;;;;;;5.88;3.25;;;;;;;1.64;90.02;99092.34;8362822;33;20213;-74
2022/01/05 13:58:40;;;;;;;3.92;2.97;;;;;;;1.75;89.67;99102.25;8362364;33;20916;-75
2022/01/05 14:03:47;;;;;;;2.55;2.22;;;;;;;1.90;88.94;99090.66;8368624;33;20146;-74
2022/01/05 14:08:54;;;;;;;2.38;2.00;;;;;;;1.80;88.57;99094.84;8412714;33;20255;-75
2022/01/05 14:14:05;;;;;;;4.80;2.92;;;;;;;1.84;88.34;99110.44;8418904;33;20211;-74
2022/01/05 14:19:12;;;;;;;7.32;2.63;;;;;;;1.89;88.17;99097.75;8418235;33;20539;-75
2022/01/05 14:24:17;;;;;;;6.53;3.33;;;;;;;1.88;88.72;99113.72;8422548;33;20641;-75
2022/01/05 14:29:24;;;;;;;3.10;2.42;;;;;;;1.92;88.11;99139.94;8392493;33;20527;-76
2022/01/05 14:34:28;;;;;;;2.75;2.28;;;;;;;1.97;88.13;99130.81;8379030;33;20182;-75
2022/01/05 14:39:38;;;;;;;8.60;3.08;;;;;;;1.97;90.08;99128.16;8408359;33;20165;-74
2022/01/05 14:44:46;;;;;;;3.22;2.33;;;;;;;1.94;89.68;99139.81;8380532;33;20509;-75
2022/01/05 14:50:05;;;;;;;3.33;2.65;;;;;;;1.81;90.37;99149.50;8376477;33;21866;-75
2022/01/05 14:55:09;;;;;;;7.80;2.95;;;;;;;1.97;89.76;99152.84;8393632;33;22311;-75
2022/01/05 15:00:15;;;;;;;5.07;3.95;;;;;;;2.14;88.97;99149.97;8378991;33;20162;-74
2022/01/05 15:05:19;;;;;;;1.60;1.50;;;;;;;2.02;89.69;99139.31;8378180;33;21601;-75
2022/01/05 15:10:22;;;;;;;7.95;1.90;;;;;;;2.00;90.42;99168.53;8372215;33;21084;-75
2022/01/05 15:15:25;;;;;;;8.93;3.92;;;;;;;2.12;89.86;99172.22;8370530;33;20472;-75
2022/01/05 15:20:30;;;;;;;3.42;1.75;;;;;;;2.03;90.12;99186.91;8377448;33;21234;-75
2022/01/05 15:25:33;;;;;;;8.32;2.72;;;;;;;2.43;89.80;99186.94;8414281;33;20853;-75
2022/01/05 15:30:36;;;;;;;7.95;3.15;;;;;;;2.28;90.30;99194.09;8439835;33;20299;-75
2022/01/05 15:35:41;;;;;;;9.27;2.53;;;;;;;2.19;91.23;99229.13;8411830;33;20624;-74
2022/01/05 15:40:48;;;;;;;6.13;2.65;;;;;;;2.11;91.73;99216.41;8421806;33;20448;-74
2022/01/05 15:45:51;;;;;;;4.65;3.17;;;;;;;2.16;91.88;99242.56;8400454;33;20744;-75
2022/01/05 15:50:56;;;;;;;6.00;2.65;;;;;;;2.04;92.94;99249.53;8427031;33;21160;-74
2022/01/05 15:56:07;;;;;;;4.68;3.55;;;;;;;2.50;91.61;99267.75;8443154;33;20429;-74
2022/01/05 16:01:27;;;;;;;4.97;3.55;;;;;;;2.23;93.16;99286.28;8413867;33;20640;-73
2022/01/05 16:06:33;;;;;;;9.40;3.83;;;;;;;2.85;90.67;99291.09;8407135;33;20462;-73
2022/01/05 16:11:38;;;;;;;11.18;4.03;;;;;;;2.54;91.90;99294.94;8418717;33;20162;-73
2022/01/05 16:16:41;;;;;;;8.98;3.85;;;;;;;2.66;91.14;99296.81;8417466;33;20220;-74
2022/01/05 16:21:45;;;;;;;5.10;2.63;;;;;;;2.51;91.06;99295.94;8384995;33;20199;-74
2022/01/05 16:26:48;;;;;;;9.27;3.70;;;;;;;2.71;90.79;99305.28;8420258;33;20470;-74
2022/01/05 16:31:52;;;;;;;12.35;4.50;;;;;;;2.88;90.46;99313.94;8418667;33;20428;-74
2022/01/05 16:36:56;;;;;;;9.68;3.75;;;;;;;2.60;91.93;99319.25;8451491;33;20355;-74
2022/01/05 16:41:59;;;;;;;8.68;4.07;;;;;;;3.00;90.90;99335.19;8444828;33;20446;-74
2022/01/05 16:47:03;;;;;;;6.82;4.13;;;;;;;2.93;90.46;99335.69;8434459;33;20297;-74
2022/01/05 16:52:08;;;;;;;10.13;3.05;;;;;;;2.52;90.83;99355.13;8407076;33;20462;-75
2022/01/05 17:02:32;;;;;;;5.68;2.42;;;;;;;2.81;90.09;99369.19;8401962;33;21032;-75
2022/01/05 17:07:37;;;;;;;7.50;3.40;;;;;;;2.83;89.89;99372.59;8392432;33;20440;-74
2022/01/05 17:12:40;;;;;;;7.55;3.03;;;;;;;2.98;89.43;99376.91;8398700;33;20467;-74
2022/01/05 17:17:44;;;;;;;9.75;3.45;;;;;;;2.80;89.84;99394.03;8404899;33;20434;-74
2022/01/05 17:22:49;;;;;;;6.63;3.30;;;;;;;3.01;89.23;99405.88;8396589;33;21421;-75
2022/01/05 17:27:52;;;;;;;9.88;3.75;;;;;;;3.10;89.48;99414.19;8398967;33;20567;-74
2022/01/05 17:32:56;;;;;;;7.47;2.90;;;;;;;2.78;90.33;99423.28;8397189;33;20539;-74
2022/01/05 17:38:02;;;;;;;6.22;2.78;;;;;;;2.69;90.40;99430.97;8389256;33;21635;-74
2022/01/05 17:43:06;;;;;;;16.02;3.25;;;;;;;2.71;89.91;99442.34;8387092;33;20461;-74
2022/01/05 17:48:16;;;;;;;8.75;3.88;;;;;;;2.82;89.50;99448.66;8379519;33;20509;-74
2022/01/05 17:53:21;;;;;;;7.00;3.90;;;;;;;2.83;90.90;99471.59;8378973;33;20430;-75
2022/01/05 17:58:24;;;;;;;8.85;3.55;;;;;;;2.58;91.80;99466.13;8379489;33;20514;-74
2022/01/05 18:03:27;;;;;;;9.95;4.80;;;;;;;2.91;90.30;99468.47;8411166;33;21957;-74
2022/01/05 18:08:32;;;;;;;19.27;5.68;;;;;;;2.82;90.67;99480.47;8431491;33;20161;-75
2022/01/05 18:13:37;;;;;;;13.27;3.78;;;;;;;2.82;90.87;99484.94;8432021;33;20628;-74
2022/01/05 18:18:41;;;;;;;12.82;3.80;;;;;;;2.78;90.07;99492.25;8435617;33;20237;-74
2022/01/05 18:23:50;;;;;;;9.80;5.13;;;;;;;3.14;89.00;99505.94;8407323;33;20495;-74
2022/01/05 18:28:56;;;;;;;9.90;3.95;;;;;;;2.97;88.66;99541.50;8443051;33;20300;-74
2022/01/05 18:34:00;;;;;;;13.07;3.88;;;;;;;2.95;87.70;99536.28;8398368;33;20488;-75
2022/01/05 18:39:06;;;;;;;9.93;3.40;;;;;;;3.07;87.48;99534.63;8378146;33;20543;-74
2022/01/05 18:44:29;;;;;;;12.73;3.97;;;;;;;2.94;87.23;99545.19;8377994;33;21165;-75
2022/01/05 18:49:32;;;;;;;11.88;3.55;;;;;;;2.99;86.49;99547.53;8373758;33;20423;-75
2022/01/05 18:54:38;;;;;;;11.55;3.42;;;;;;;2.79;86.06;99562.03;8372881;33;20449;-74
2022/01/05 18:59:41;;;;;;;8.52;2.45;;;;;;;2.55;86.85;99565.28;8372972;33;20229;-74
2022/01/05 19:04:45;;;;;;;10.70;3.38;;;;;;;2.67;86.00;99566.31;8373195;33;20340;-74
2022/01/05 19:09:50;;;;;;;7.18;2.50;;;;;;;2.60;85.86;99588.84;8373070;33;20630;-75
2022/01/05 19:14:53;;;;;;;7.22;2.75;;;;;;;2.66;85.41;99582.31;8373896;33;20155;-75
2022/01/05 19:19:56;;;;;;;8.88;3.40;;;;;;;2.58;85.46;99593.41;8378728;33;20630;-75
2022/01/05 19:25:00;;;;;;;12.23;4.00;;;;;;;2.66;84.79;99600.88;8378429;33;20303;-75
2022/01/05 19:30:23;;;;;;;12.23;3.85;;;;;;;2.82;84.46;99604.28;8391569;33;20610;-75
2022/01/05 19:35:26;;;;;;;11.38;2.65;;;;;;;2.98;83.20;99604.22;8381043;33;20528;-75
2022/01/05 19:40:30;;;;;;;11.18;3.45;;;;;;;2.74;84.00;99615.41;8379065;33;20996;-75
2022/01/05 19:45:35;;;;;;;8.85;3.33;;;;;;;2.71;83.41;99599.66;8373255;33;20493;-75
2022/01/05 19:50:42;;;;;;;12.93;3.75;;;;;;;2.78;83.55;99621.34;8321988;34;20207;-75
2022/01/05 19:55:49;;;;;;;15.50;3.38;;;;;;;2.86;83.55;99634.16;8322259;34;20474;-76
2022/01/05 20:00:52;;;;;;;12.27;2.30;;;;;;;2.58;84.21;99635.81;8346234;33;20627;-75
2022/01/05 20:05:55;;;;;;;10.02;3.53;;;;;;;2.64;84.43;99634.59;8347200;33;20198;-75
2022/01/05 20:10:59;;;;;;;11.32;3.17;;;;;;;2.65;84.15;99636.31;8347325;33;20703;-74
2022/01/05 20:16:02;;;;;;;10.37;3.50;;;;;;;2.63;84.56;99654.09;8341170;33;21090;-74
2022/01/05 20:21:06;;;;;;;13.95;3.47;;;;;;;2.59;84.70;99672.84;8359856;33;20412;-75
2022/01/05 20:26:11;;;;;;;13.13;3.78;;;;;;;2.46;85.14;99673.63;8379711;33;20158;-75
2022/01/05 20:31:14;;;;;;;13.75;4.13;;;;;;;2.50;84.22;99669.88;8392298;33;20138;-74
2022/01/05 20:36:17;;;;;;;15.55;4.00;;;;;;;2.40;84.42;99672.19;8395808;33;20654;-75
2022/01/05 20:41:22;;;;;;;11.73;3.47;;;;;;;2.50;83.94;99683.97;8394516;33;20587;-76
2022/01/05 20:46:26;;;;;;;9.73;3.92;;;;;;;2.47;83.47;99685.91;8400401;33;20416;-75
2022/01/05 20:51:29;;;;;;;15.00;4.22;;;;;;;2.54;83.54;99693.47;8393474;33;20245;-75
2022/01/05 20:56:34;;;;;;;14.75;3.65;;;;;;;2.34;82.57;99702.56;8390230;33;20929;-75
2022/01/05 21:01:38;;;;;;;7.22;2.88;;;;;;;2.47;83.25;99712.44;8392177;33;21211;-74
2022/01/05 21:06:43;;;;;;;16.50;3.38;;;;;;;2.48;82.03;99727.41;8378161;33;20205;-75
2022/01/05 21:11:47;;;;;;;10.38;3.40;;;;;;;2.53;82.88;99743.91;8347227;33;20187;-75
2022/01/05 21:16:51;;;;;;;14.80;4.40;;;;;;;2.61;81.94;99754.97;8378623;33;21097;-75
2022/01/05 21:21:54;;;;;;;9.45;3.67;;;;;;;2.34;82.02;99766.16;8374717;33;20432;-75
2022/01/05 21:26:58;;;;;;;7.72;2.70;;;;;;;2.63;81.99;99761.00;8343143;33;20434;-75
2022/01/05 21:32:01;;;;;;;17.90;4.25;;;;;;;2.65;81.65;99768.88;8343753;33;20757;-75
2022/01/05 21:37:05;;;;;;;11.70;3.75;;;;;;;2.70;81.46;99770.34;8325962;33;20151;-75
2022/01/05 21:42:11;;;;;;;17.17;4.95;;;;;;;2.58;82.02;99769.25;8318470;33;20132;-76
2022/01/05 21:47:16;;;;;;;10.88;3.53;;;;;;;2.36;81.71;99782.00;8324437;33;20190;-75
2022/01/05 21:52:20;;;;;;;7.78;3.53;;;;;;;2.26;82.48;99784.28;8337897;33;20564;-75
2022/01/05 21:57:24;;;;;;;8.95;3.05;;;;;;;2.34;81.71;99783.88;8362516;33;20201;-75
2022/01/05 22:02:27;;;;;;;9.40;2.88;;;;;;;2.46;82.29;99793.78;8359906;33;20424;-76
2022/01/05 22:07:31;;;;;;;8.48;3.15;;;;;;;2.29;82.18;99783.28;8352554;33;20412;-76
2022/01/05 22:12:35;;;;;;;10.25;3.47;;;;;;;2.46;81.61;99801.72;8350382;33;20174;-75
2022/01/05 22:17:39;;;;;;;11.05;2.60;;;;;;;2.15;81.10;99810.53;8347166;33;20437;-75
2022/01/05 22:22:42;;;;;;;10.52;3.15;;;;;;;2.10;81.34;99808.13;8390868;33;20609;-75
2022/01/05 22:27:46;;;;;;;11.75;3.10;;;;;;;2.12;80.74;99805.41;8385004;33;20422;-75
2022/01/05 22:32:50;;;;;;;9.85;2.95;;;;;;;2.08;80.67;99802.06;8389779;33;20398;-75
2022/01/05 22:37:53;;;;;;;17.42;4.18;;;;;;;2.65;79.98;99816.63;8406577;33;20458;-75
2022/01/05 22:42:57;;;;;;;11.20;3.25;;;;;;;2.13;80.22;99818.56;8408740;33;20573;-75
2022/01/05 22:48:00;;;;;;;14.45;3.67;;;;;;;2.51;79.44;99836.78;8404159;33;20578;-76
2022/01/05 22:53:03;;;;;;;12.55;3.63;;;;;;;2.24;80.04;99823.28;8392031;33;20957;-76
2022/01/05 22:58:08;;;;;;;16.50;4.00;;;;;;;2.11;79.95;99841.66;8383900;33;21175;-75
2022/01/05 23:03:11;;;;;;;16.35;3.75;;;;;;;2.30;78.54;99843.28;8408586;33;22208;-75
2022/01/05 23:08:14;;;;;;;13.75;3.78;;;;;;;2.23;78.95;99858.69;8398182;33;20536;-75
2022/01/05 23:13:19;;;;;;;10.57;3.08;;;;;;;2.21;79.64;99855.25;8371539;33;21096;-74
2022/01/05 23:18:22;;;;;;;12.98;3.40;;;;;;;2.24;79.07;99862.19;8367583;33;20839;-73
2022/01/05 23:23:25;;;;;;;14.57;3.80;;;;;;;2.01;79.51;99860.78;8368278;33;20528;-76
2022/01/05 23:28:30;;;;;;;16.02;4.10;;;;;;;2.18;80.57;99881.91;8372616;33;20487;-75
2022/01/05 23:33:33;;;;;;;16.38;3.78;;;;;;;2.33;81.36;99890.81;8374650;33;20276;-75
2022/01/05 23:38:37;;;;;;;10.93;3.88;;;;;;;2.15;82.21;99888.25;8373691;33;20899;-75
2022/01/05 23:43:42;;;;;;;13.60;4.63;;;;;;;1.97;83.03;99906.91;8369991;33;20214;-75
2022/01/05 23:48:45;;;;;;;12.40;3.53;;;;;;;1.81;83.72;99893.63;8369286;33;22058;-75
2022/01/05 23:53:48;;;;;;;12.80;3.88;;;;;;;1.88;82.64;99889.72;8375620;33;20466;-75
2022/01/05 23:58:52;;;;;;;14.65;3.22;;;;;;;1.49;84.18;99904.09;8383259;33;20466;-74
